createdAt,value
2022-10-17T00:01:58.328Z,19.85
2022-10-17T00:04:24.840Z,18.65
2022-10-17T00:06:51.310Z,21.58
2022-10-17T00:09:17.767Z,25.48
2022-10-17T00:11:44.265Z,23.17
2022-10-17T00:14:10.990Z,20.42
2022-10-17T00:16:37.698Z,20.75
2022-10-17T00:19:05.217Z,22.85
2022-10-17T00:21:31.980Z,20.85
2022-10-17T00:23:59.254Z,20.30
2022-10-17T00:26:25.749Z,19.55
2022-10-17T00:28:52.547Z,23.20
2022-10-17T00:31:20.306Z,23.30
2022-10-17T00:33:46.823Z,27.20
2022-10-17T00:36:15.379Z,23.30
2022-10-17T00:38:42.739Z,25.15
2022-10-17T00:41:10.391Z,21.10
2022-10-17T00:43:50.214Z,24.95
2022-10-17T00:46:16.646Z,22.20
2022-10-17T00:48:43.444Z,21.38
2022-10-17T00:51:10.005Z,22.67
2022-10-17T00:53:37.542Z,26.35
2022-10-17T00:56:04.051Z,24.45
2022-10-17T00:58:30.551Z,24.73
2022-10-17T01:00:57.020Z,24.23
2022-10-17T01:03:23.707Z,23.45
2022-10-17T01:05:50.293Z,24.48
2022-10-17T01:08:16.960Z,22.25
2022-10-17T01:11:05.461Z,22.00
2022-10-17T01:14:01.283Z,22.38
2022-10-17T01:16:43.137Z,24.25
2022-10-17T01:19:32.164Z,25.98
2022-10-17T01:22:01.546Z,22.58
2022-10-17T01:24:27.977Z,23.38
2022-10-17T01:27:09.718Z,26.38
2022-10-17T01:29:54.962Z,23.77
2022-10-17T01:32:31.067Z,21.13
2022-10-17T01:35:12.185Z,21.73
2022-10-17T01:38:04.960Z,26.05
2022-10-17T01:40:36.547Z,23.75
2022-10-17T01:43:11.615Z,24.10
2022-10-17T01:45:43.132Z,26.38
2022-10-17T01:48:13.151Z,22.67
2022-10-17T01:50:43.712Z,24.67
2022-10-17T01:53:30.270Z,28.67
2022-10-17T01:58:30.183Z,26.42
2022-10-17T02:01:00.935Z,28.33
2022-10-17T02:03:28.301Z,31.33
2022-10-17T02:05:54.753Z,24.98
2022-10-17T02:08:28.349Z,24.70
2022-10-17T02:11:01.366Z,22.77
2022-10-17T02:13:27.804Z,22.05
2022-10-17T02:16:13.671Z,23.38
2022-10-17T02:18:58.888Z,24.80
2022-10-17T02:21:41.161Z,21.98
2022-10-17T02:24:13.307Z,23.20
2022-10-17T02:27:00.027Z,24.83
2022-10-17T02:29:30.607Z,25.10
2022-10-17T02:32:00.109Z,22.63
2022-10-17T02:34:32.157Z,26.42
2022-10-17T02:37:00.421Z,23.17
2022-10-17T02:39:28.157Z,30.67
2022-10-17T02:41:56.673Z,23.48
2022-10-17T02:44:23.867Z,23.85
2022-10-17T02:46:55.919Z,25.75
2022-10-17T02:49:27.812Z,25.40
2022-10-17T02:52:00.101Z,26.98
2022-10-17T02:54:26.540Z,28.65
2022-10-17T02:57:00.899Z,34.72
2022-10-17T02:59:29.649Z,30.08
2022-10-17T03:01:56.460Z,29.13
2022-10-17T03:04:23.038Z,33.08
2022-10-17T03:06:49.862Z,31.67
2022-10-17T03:09:16.385Z,29.48
2022-10-17T03:11:43.091Z,31.88
2022-10-17T03:14:10.009Z,35.42
2022-10-17T03:16:36.441Z,29.50
2022-10-17T03:19:02.965Z,31.95
2022-10-17T03:21:29.484Z,31.73
2022-10-17T03:23:56.047Z,34.63
2022-10-17T03:26:22.603Z,32.75
2022-10-17T03:28:51.954Z,29.52
2022-10-17T03:31:21.165Z,29.88
2022-10-17T03:33:47.692Z,33.80
2022-10-17T03:36:15.055Z,30.45
2022-10-17T03:38:41.985Z,29.45
2022-10-17T03:41:08.738Z,31.27
2022-10-17T03:43:35.217Z,33.47
2022-10-17T03:46:01.928Z,31.30
2022-10-17T03:48:29.568Z,31.77
2022-10-17T03:51:03.561Z,29.13
2022-10-17T03:53:30.092Z,35.00
2022-10-17T03:55:56.863Z,36.47
2022-10-17T03:58:23.397Z,31.15
2022-10-17T04:00:49.817Z,32.88
2022-10-17T04:03:17.324Z,30.48
2022-10-17T04:05:44.003Z,35.30
2022-10-17T04:08:10.545Z,31.38
2022-10-17T04:10:37.098Z,34.13
2022-10-17T04:13:03.551Z,33.33
2022-10-17T04:15:30.041Z,28.27
2022-10-17T04:17:56.552Z,33.58
2022-10-17T04:20:23.057Z,29.67
2022-10-17T04:22:49.457Z,28.85
2022-10-17T04:25:15.940Z,30.65
2022-10-17T04:27:42.421Z,31.48
2022-10-17T04:30:09.109Z,31.33
2022-10-17T04:32:39.580Z,30.58
2022-10-17T04:35:06.539Z,30.00
2022-10-17T04:37:32.958Z,31.45
2022-10-17T04:40:02.217Z,30.38
2022-10-17T04:42:29.437Z,29.23
2022-10-17T04:44:56.118Z,34.50
2022-10-17T04:47:22.616Z,32.65
2022-10-17T04:49:49.074Z,27.42
2022-10-17T04:52:15.552Z,26.75
2022-10-17T04:54:41.984Z,27.70
2022-10-17T04:57:08.523Z,27.83
2022-10-17T04:59:35.055Z,25.58
2022-10-17T05:02:01.520Z,27.88
2022-10-17T05:04:27.974Z,31.85
2022-10-17T05:06:54.465Z,46.05
2022-10-17T05:09:21.010Z,24.80
2022-10-17T05:11:47.568Z,33.95
2022-10-17T05:14:14.862Z,28.60
2022-10-17T05:16:41.346Z,31.42
2022-10-17T05:19:07.783Z,30.23
2022-10-17T05:21:34.372Z,30.58
2022-10-17T05:24:00.790Z,32.88
2022-10-17T05:26:27.235Z,32.25
2022-10-17T05:28:54.850Z,32.45
2022-10-17T05:31:23.708Z,32.13
2022-10-17T05:33:50.665Z,35.33
2022-10-17T05:36:18.187Z,36.75
2022-10-17T05:38:44.667Z,33.72
2022-10-17T05:41:12.274Z,29.90
2022-10-17T05:43:38.783Z,32.60
2022-10-17T05:46:07.827Z,32.70
2022-10-17T05:48:34.815Z,32.40
2022-10-17T05:51:02.301Z,35.25
2022-10-17T05:53:32.652Z,29.83
2022-10-17T05:56:00.315Z,32.80
2022-10-17T06:01:14.574Z,31.63
2022-10-17T06:03:41.234Z,30.73
2022-10-17T06:06:09.120Z,29.20
2022-10-17T06:08:38.448Z,28.90
2022-10-17T06:11:10.510Z,28.80
2022-10-17T06:13:38.635Z,24.70
2022-10-17T06:16:05.964Z,26.67
2022-10-17T06:18:32.601Z,23.30
2022-10-17T06:21:03.278Z,22.65
2022-10-17T06:23:29.800Z,22.02
2022-10-17T06:26:00.683Z,22.10
2022-10-17T06:28:27.586Z,19.60
2022-10-17T06:30:54.250Z,22.20
2022-10-17T06:33:21.692Z,21.08
2022-10-17T06:35:55.046Z,21.13
2022-10-17T06:38:22.052Z,20.63
2022-10-17T06:40:48.764Z,18.48
2022-10-17T06:43:15.298Z,17.38
2022-10-17T06:45:41.970Z,19.58
2022-10-17T06:48:08.761Z,17.50
2022-10-17T06:50:35.479Z,20.77
2022-10-17T06:53:01.949Z,17.48
2022-10-17T06:55:28.488Z,17.13
2022-10-17T06:57:58.195Z,17.38
2022-10-17T07:00:32.435Z,18.05
2022-10-17T07:02:59.108Z,16.00
2022-10-17T07:05:25.600Z,17.02
2022-10-17T07:07:52.163Z,18.23
2022-10-17T07:10:18.912Z,15.95
2022-10-17T07:12:45.966Z,14.73
2022-10-17T07:15:15.841Z,13.30
2022-10-17T07:17:42.448Z,13.10
2022-10-17T07:20:09.467Z,12.68
2022-10-17T07:22:36.235Z,12.95
2022-10-17T07:25:02.798Z,11.75
2022-10-17T07:27:29.791Z,12.60
2022-10-17T07:29:56.672Z,11.45
2022-10-17T07:32:23.196Z,11.43
2022-10-17T07:34:49.726Z,12.55
2022-10-17T07:37:16.399Z,11.18
2022-10-17T07:39:42.894Z,12.13
2022-10-17T07:42:10.205Z,12.90
2022-10-17T07:44:36.717Z,13.68
2022-10-17T07:47:03.295Z,9.68
2022-10-17T07:49:30.311Z,11.45
2022-10-17T07:51:57.035Z,14.07
2022-10-17T07:54:24.768Z,9.60
2022-10-17T07:56:51.293Z,10.35
2022-10-17T07:59:18.740Z,10.05
2022-10-17T08:01:45.462Z,12.80
2022-10-17T08:04:12.111Z,10.45
2022-10-17T08:06:38.719Z,10.60
2022-10-17T08:09:05.216Z,10.15
2022-10-17T08:11:31.634Z,9.75
2022-10-17T08:13:58.096Z,11.95
2022-10-17T08:16:24.683Z,12.88
2022-10-17T08:18:51.163Z,9.98
2022-10-17T08:21:17.589Z,10.23
2022-10-17T08:23:44.012Z,13.50
2022-10-17T08:26:11.018Z,10.50
2022-10-17T08:28:38.176Z,9.95
2022-10-17T08:31:06.185Z,9.52
2022-10-17T08:33:33.551Z,10.35
2022-10-17T08:36:00.704Z,11.30
2022-10-17T08:38:29.412Z,19.15
2022-10-17T08:41:01.767Z,10.45
2022-10-17T08:43:35.582Z,9.30
2022-10-17T08:46:03.730Z,9.98
2022-10-17T08:48:32.408Z,10.90
2022-10-17T08:51:11.003Z,9.50
2022-10-17T08:53:47.546Z,10.93
2022-10-17T08:56:19.986Z,12.05
2022-10-17T08:58:51.559Z,11.65
2022-10-17T09:01:41.485Z,11.23
2022-10-17T09:04:23.536Z,10.18
2022-10-17T09:06:55.331Z,11.13
2022-10-17T09:09:27.995Z,12.02
2022-10-17T09:11:54.399Z,12.10
2022-10-17T09:14:20.892Z,9.93
2022-10-17T09:16:56.428Z,9.60
2022-10-17T09:19:28.865Z,10.65
2022-10-17T09:21:58.417Z,9.93
2022-10-17T09:24:40.990Z,11.18
2022-10-17T09:27:15.526Z,13.10
2022-10-17T09:29:43.940Z,10.75
2022-10-17T09:32:23.148Z,10.75
2022-10-17T09:34:49.703Z,10.85
2022-10-17T09:37:18.185Z,12.77
2022-10-17T09:39:44.867Z,9.52
2022-10-17T09:42:20.804Z,11.68
2022-10-17T09:44:49.376Z,10.52
2022-10-17T09:47:28.061Z,10.70
2022-10-17T09:49:54.715Z,11.18
2022-10-17T09:52:47.646Z,9.55
2022-10-17T09:55:20.127Z,11.67
2022-10-17T09:57:55.453Z,8.27
2022-10-17T10:00:25.591Z,9.50
2022-10-17T10:03:08.315Z,9.40
2022-10-17T10:05:34.815Z,8.93
2022-10-17T10:08:14.888Z,10.65
2022-10-17T10:10:44.434Z,10.23
2022-10-17T10:13:13.898Z,10.38
2022-10-17T10:15:41.606Z,11.27
2022-10-17T10:18:28.071Z,12.85
2022-10-17T10:21:03.731Z,9.43
2022-10-17T10:23:30.143Z,8.90
2022-10-17T10:25:58.175Z,11.05
2022-10-17T10:28:27.069Z,8.23
2022-10-17T10:30:54.378Z,8.27
2022-10-17T10:33:25.858Z,9.02
2022-10-17T10:35:56.611Z,10.10
2022-10-17T10:38:23.229Z,10.35
2022-10-17T10:40:51.445Z,10.68
2022-10-17T10:43:26.970Z,13.93
2022-10-17T10:45:53.668Z,8.25
2022-10-17T10:48:24.471Z,8.55
2022-10-17T10:50:59.045Z,8.63
2022-10-17T10:53:26.061Z,10.73
2022-10-17T10:55:55.044Z,12.60
2022-10-17T10:58:34.727Z,9.13
2022-10-17T11:01:04.762Z,10.73
2022-10-17T11:03:37.758Z,9.23
2022-10-17T11:06:06.353Z,9.55
2022-10-17T11:08:43.713Z,7.90
2022-10-17T11:11:19.186Z,9.32
2022-10-17T11:13:49.643Z,7.97
2022-10-17T11:16:34.740Z,9.70
2022-10-17T11:19:16.784Z,8.20
2022-10-17T11:21:58.538Z,12.10
2022-10-17T11:24:31.582Z,9.77
2022-10-17T11:27:00.131Z,7.90
2022-10-17T11:29:29.395Z,38.95
2022-10-17T11:31:56.982Z,11.30
2022-10-17T11:34:26.113Z,8.63
2022-10-17T11:36:54.806Z,10.50
2022-10-17T11:39:29.556Z,9.15
2022-10-17T11:42:06.831Z,10.13
2022-10-17T11:44:38.000Z,10.95
2022-10-17T11:47:23.112Z,12.00
2022-10-17T11:49:52.299Z,17.65
2022-10-17T11:52:51.343Z,11.93
2022-10-17T11:55:18.473Z,13.80
2022-10-17T11:57:50.105Z,46.63
2022-10-17T12:00:37.973Z,60.45
2022-10-17T12:03:28.795Z,40.92
2022-10-17T12:05:58.274Z,24.35
2022-10-17T12:08:27.964Z,16.23
2022-10-17T12:11:04.116Z,11.10
2022-10-17T12:13:33.709Z,8.15
2022-10-17T12:16:22.392Z,9.25
2022-10-17T12:19:09.390Z,10.52
2022-10-17T12:22:14.491Z,8.30
2022-10-17T12:24:42.987Z,7.88
2022-10-17T12:27:47.932Z,9.85
2022-10-17T12:33:14.478Z,13.32
2022-10-17T12:35:41.221Z,9.52
2022-10-17T12:38:07.693Z,8.35
2022-10-17T12:40:40.927Z,7.43
2022-10-17T12:43:21.227Z,9.05
2022-10-17T12:45:49.064Z,7.85
2022-10-17T12:48:47.996Z,8.02
2022-10-17T12:51:37.968Z,8.82
2022-10-17T12:54:12.836Z,8.80
2022-10-17T12:56:44.560Z,8.60
2022-10-17T12:59:14.014Z,10.15
2022-10-17T13:01:44.102Z,10.05
2022-10-17T13:04:11.548Z,7.95
2022-10-17T13:06:47.364Z,8.10
2022-10-17T13:09:33.659Z,7.60
2022-10-17T13:12:18.872Z,7.97
2022-10-17T13:14:50.149Z,15.73
2022-10-17T13:17:33.267Z,11.30
2022-10-17T13:20:00.256Z,9.20
2022-10-17T13:22:32.361Z,9.10
2022-10-17T13:25:31.230Z,6.72
2022-10-17T13:31:03.828Z,8.43
2022-10-17T13:33:39.300Z,8.18
2022-10-17T13:36:13.845Z,32.00
2022-10-17T13:38:51.423Z,8.93
2022-10-17T13:41:37.177Z,10.95
2022-10-17T13:44:10.542Z,9.80
2022-10-17T13:46:39.887Z,9.18
2022-10-17T13:49:19.035Z,8.65
2022-10-17T13:51:50.035Z,10.60
2022-10-17T13:54:29.860Z,10.57
2022-10-17T13:56:57.698Z,9.82
2022-10-17T13:59:26.206Z,13.60
2022-10-17T14:01:53.016Z,15.05
2022-10-17T14:04:20.593Z,12.90
2022-10-17T14:06:51.212Z,11.27
2022-10-17T14:09:24.705Z,11.40
2022-10-17T14:12:02.206Z,9.70
2022-10-17T14:14:46.160Z,10.95
2022-10-17T14:17:23.147Z,12.68
2022-10-17T14:20:05.935Z,16.50
2022-10-17T14:22:39.332Z,10.32
2022-10-17T14:25:06.350Z,14.85
2022-10-17T14:27:38.557Z,10.85
2022-10-17T14:30:07.082Z,12.50
2022-10-17T14:32:35.016Z,10.60
2022-10-17T14:35:18.801Z,10.75
2022-10-17T14:37:51.885Z,11.63
2022-10-17T14:40:20.122Z,10.68
2022-10-17T14:42:47.578Z,16.63
2022-10-17T14:45:21.378Z,12.27
2022-10-17T14:47:51.148Z,10.70
2022-10-17T14:50:23.017Z,11.45
2022-10-17T14:53:06.281Z,15.75
2022-10-17T14:55:34.372Z,11.95
2022-10-17T14:58:04.517Z,12.25
2022-10-17T15:00:34.172Z,10.95
2022-10-17T15:03:00.877Z,15.93
2022-10-17T15:05:27.515Z,12.55
2022-10-17T15:07:54.435Z,14.80
2022-10-17T15:10:34.972Z,13.43
2022-10-17T15:13:26.796Z,10.30
2022-10-17T15:15:52.208Z,12.95
2022-10-17T15:18:19.422Z,14.70
2022-10-17T15:20:45.979Z,12.80
2022-10-17T15:23:12.677Z,12.80
2022-10-17T15:25:39.342Z,12.43
2022-10-17T15:28:06.068Z,23.65
2022-10-17T15:30:35.823Z,11.80
2022-10-17T15:33:02.442Z,13.65
2022-10-17T15:35:29.144Z,13.45
2022-10-17T15:37:55.942Z,14.52
2022-10-17T15:40:25.198Z,14.90
2022-10-17T15:42:51.921Z,16.63
2022-10-17T15:45:19.353Z,12.80
2022-10-17T15:47:50.566Z,12.93
2022-10-17T15:50:17.670Z,12.13
2022-10-17T15:52:44.385Z,11.48
2022-10-17T15:55:11.153Z,13.38
2022-10-17T15:57:39.089Z,13.80
2022-10-17T16:00:09.909Z,15.73
2022-10-17T16:02:38.461Z,15.03
2022-10-17T16:05:16.333Z,13.93
2022-10-17T16:07:43.623Z,14.75
2022-10-17T16:10:10.467Z,14.82
2022-10-17T16:12:41.321Z,18.83
2022-10-17T16:15:15.146Z,17.17
2022-10-17T16:17:41.867Z,20.08
2022-10-17T16:20:08.654Z,23.08
2022-10-17T16:22:38.527Z,28.90
2022-10-17T16:25:10.532Z,29.40
2022-10-17T16:27:37.667Z,27.73
2022-10-17T16:30:06.076Z,25.65
2022-10-17T16:32:32.953Z,24.92
2022-10-17T16:35:00.219Z,21.17
2022-10-17T16:37:26.925Z,19.52
2022-10-17T16:39:53.840Z,17.92
2022-10-17T16:42:20.903Z,19.58
2022-10-17T16:44:48.062Z,21.75
2022-10-17T16:47:14.532Z,21.67
2022-10-17T16:49:44.414Z,23.95
2022-10-17T16:52:12.446Z,25.23
2022-10-17T16:54:39.158Z,26.08
2022-10-17T16:57:05.771Z,33.80
2022-10-17T16:59:32.285Z,34.55
2022-10-17T17:01:58.711Z,27.13
2022-10-17T17:04:25.254Z,28.20
2022-10-17T17:06:51.923Z,23.48
2022-10-17T17:09:18.418Z,24.30
2022-10-17T17:11:44.958Z,28.58
2022-10-17T17:14:11.978Z,27.35
2022-10-17T17:16:38.495Z,26.88
2022-10-17T17:19:06.766Z,32.15
2022-10-17T17:21:34.258Z,31.88
2022-10-17T17:24:01.512Z,27.33
2022-10-17T17:26:30.327Z,28.05
2022-10-17T17:28:58.210Z,28.98
2022-10-17T17:31:26.328Z,31.90
2022-10-17T17:33:53.328Z,24.15
2022-10-17T17:36:32.278Z,19.63
2022-10-17T17:39:01.848Z,18.27
2022-10-17T17:41:28.685Z,17.95
2022-10-17T17:43:59.261Z,16.63
2022-10-17T17:46:26.081Z,17.00
2022-10-17T17:48:55.781Z,17.83
2022-10-17T17:51:28.481Z,15.75
2022-10-17T17:56:23.795Z,20.90
2022-10-17T17:58:54.192Z,17.73
2022-10-17T18:01:22.494Z,16.35
2022-10-17T18:03:51.179Z,17.08
2022-10-17T18:06:18.145Z,19.52
2022-10-17T18:08:45.603Z,15.50
2022-10-17T18:11:12.570Z,18.10
2022-10-17T18:13:39.220Z,18.15
2022-10-17T18:16:13.497Z,20.88
2022-10-17T18:18:41.765Z,18.17
2022-10-17T18:21:09.147Z,20.05
2022-10-17T18:23:39.649Z,20.85
2022-10-17T18:26:06.611Z,21.33
2022-10-17T18:28:34.085Z,18.70
2022-10-17T18:31:05.185Z,20.13
2022-10-17T18:33:31.771Z,18.38
2022-10-17T18:36:06.097Z,19.88
2022-10-17T18:38:33.549Z,21.30
2022-10-17T18:41:13.095Z,17.58
2022-10-17T18:43:43.664Z,19.95
2022-10-17T18:46:15.080Z,16.02
2022-10-17T18:48:42.954Z,18.40
2022-10-17T18:51:09.608Z,18.02
2022-10-17T18:53:39.370Z,20.80
2022-10-17T18:56:05.960Z,19.80
2022-10-17T18:58:32.616Z,20.30
2022-10-17T19:01:09.982Z,21.08
2022-10-17T19:03:36.990Z,21.00
2022-10-17T19:06:04.414Z,18.73
2022-10-17T19:08:31.149Z,24.48
2022-10-17T19:10:57.954Z,22.58
2022-10-17T19:13:24.424Z,19.85
2022-10-17T19:15:51.058Z,21.25
2022-10-17T19:18:17.784Z,20.55
2022-10-17T19:20:44.394Z,22.42
2022-10-17T19:23:11.284Z,22.95
2022-10-17T19:25:37.906Z,20.55
2022-10-17T19:28:04.523Z,22.42
2022-10-17T19:30:33.595Z,21.35
2022-10-17T19:33:00.185Z,21.02
2022-10-17T19:35:26.729Z,23.65
2022-10-17T19:37:53.380Z,25.13
2022-10-17T19:40:20.117Z,19.75
2022-10-17T19:42:47.122Z,23.13
2022-10-17T19:45:13.737Z,20.80
2022-10-17T19:47:40.489Z,20.40
2022-10-17T19:50:07.489Z,25.30
2022-10-17T19:52:34.364Z,19.15
2022-10-17T19:55:01.028Z,22.65
2022-10-17T19:57:27.800Z,23.45
2022-10-17T19:59:56.059Z,23.33
2022-10-17T20:02:23.447Z,23.10
2022-10-17T20:05:06.372Z,20.88
2022-10-17T20:07:36.943Z,21.08
2022-10-17T20:10:03.891Z,22.70
2022-10-17T20:12:31.068Z,22.50
2022-10-17T20:14:57.929Z,24.60
2022-10-17T20:17:24.726Z,23.98
2022-10-17T20:19:51.432Z,24.88
2022-10-17T20:22:18.132Z,23.50
2022-10-17T20:24:44.893Z,24.80
2022-10-17T20:27:11.644Z,22.30
2022-10-17T20:29:38.316Z,23.17
2022-10-17T20:32:04.852Z,27.10
2022-10-17T20:34:35.543Z,24.50
2022-10-17T20:37:02.381Z,24.48
2022-10-17T20:39:29.032Z,22.02
2022-10-17T20:41:55.872Z,21.98
2022-10-17T20:44:22.590Z,23.27
2022-10-17T20:47:01.064Z,23.33
2022-10-17T20:49:28.813Z,23.95
2022-10-17T20:51:55.307Z,19.42
2022-10-17T20:54:22.502Z,24.27
2022-10-17T20:56:49.066Z,25.48
2022-10-17T20:59:17.582Z,22.80
2022-10-17T21:01:45.364Z,20.95
2022-10-17T21:04:45.383Z,25.17
2022-10-17T21:06:59.341Z,25.00
2022-10-17T21:09:26.248Z,30.27
2022-10-17T21:11:55.713Z,23.88
2022-10-17T21:14:23.354Z,27.20
2022-10-17T21:16:50.101Z,23.73
2022-10-17T21:19:19.081Z,23.92
2022-10-17T21:21:46.451Z,24.88
2022-10-17T21:24:14.788Z,22.88
2022-10-17T21:26:42.469Z,23.33
2022-10-17T21:29:09.802Z,20.88
2022-10-17T21:31:39.834Z,22.23
2022-10-17T21:34:07.758Z,23.67
2022-10-17T21:36:34.658Z,25.17
2022-10-17T21:39:01.582Z,25.23
2022-10-17T21:41:28.914Z,21.65
2022-10-17T21:43:57.600Z,21.40
2022-10-17T21:46:24.470Z,22.48
2022-10-17T21:48:51.992Z,23.98
2022-10-17T21:51:19.251Z,22.50
2022-10-17T21:53:46.016Z,27.38
2022-10-17T21:56:14.330Z,23.15
2022-10-17T21:58:41.308Z,21.23
2022-10-17T22:01:17.799Z,23.63
2022-10-17T22:03:50.608Z,22.13
2022-10-17T22:06:40.174Z,22.08
2022-10-17T22:09:12.106Z,24.30
2022-10-17T22:11:53.750Z,20.33
2022-10-17T22:14:20.998Z,22.70
2022-10-17T22:16:48.767Z,22.77
2022-10-17T22:19:19.737Z,22.42
2022-10-17T22:21:46.593Z,24.02
2022-10-17T22:24:14.501Z,23.25
2022-10-17T22:26:41.243Z,23.45
2022-10-17T22:29:08.477Z,22.05
2022-10-17T22:31:35.703Z,21.67
2022-10-17T22:34:05.466Z,23.13
2022-10-17T22:36:32.650Z,23.25
2022-10-17T22:38:59.276Z,23.95
2022-10-17T22:41:25.801Z,22.50
2022-10-17T22:43:52.325Z,22.02
2022-10-17T22:46:19.077Z,22.50
2022-10-17T22:48:45.753Z,24.75
2022-10-17T22:51:13.021Z,23.23
2022-10-17T22:53:40.303Z,22.58
2022-10-17T22:56:08.449Z,24.17
2022-10-17T22:58:35.455Z,25.58
2022-10-17T23:01:02.079Z,23.02
2022-10-17T23:03:29.304Z,24.75
2022-10-17T23:05:56.819Z,22.40
2022-10-17T23:08:23.886Z,27.55
2022-10-17T23:10:50.498Z,22.40
2022-10-17T23:13:17.244Z,24.10
2022-10-17T23:15:43.951Z,20.98
2022-10-17T23:18:10.490Z,22.33
2022-10-17T23:20:37.778Z,22.42
2022-10-17T23:23:05.001Z,20.58
2022-10-17T23:25:33.339Z,23.15
2022-10-17T23:27:59.830Z,21.33
2022-10-17T23:30:26.376Z,20.13
2022-10-17T23:32:53.648Z,21.05
2022-10-17T23:35:20.404Z,16.98
2022-10-17T23:37:47.056Z,21.35
2022-10-17T23:40:13.735Z,19.50
2022-10-17T23:42:40.459Z,24.63
2022-10-17T23:45:07.398Z,20.58
2022-10-17T23:47:34.081Z,17.50
2022-10-17T23:50:00.758Z,17.05
2022-10-17T23:52:27.309Z,19.30
2022-10-17T23:54:53.948Z,22.70
2022-10-17T23:57:20.609Z,19.90
2022-10-17T23:59:47.368Z,24.38
